MDT,Max TemperatureF,Mean TemperatureF,Min TemperatureF,Max Dew PointF,MeanDew PointF,Min DewpointF,Max Humidity, Mean Humidity, Min Humidity, Max Sea Level PressureIn, Mean Sea Level PressureIn, Min Sea Level PressureIn, Max VisibilityMiles, Mean VisibilityMiles, Min VisibilityMiles, Max Wind SpeedMPH, Mean Wind SpeedMPH, Max Gust SpeedMPH,PrecipitationIn, CloudCover, Events, WindDirDegrees
2012-10-1,83,66,48,42,35,29,55,37,18,30.27,30.16,30.03,10,10,8,12,3,18,0.00,0,,241
2012-10-2,85,63,40,42,33,19,79,45,11,30.05,29.97,29.88,10,10,10,30,5,43,0.00,0,,297
2012-10-3,68,57,45,23,14,8,29,19,9,30.27,30.17,29.97,10,9,4,40,12,48,0.00,2,,315
2012-10-4,66,47,28,27,20,18,63,40,16,30.28,30.22,30.14,10,10,10,14,3,17,0.00,0,,329
2012-10-5,63,48,33,26,21,18,56,37,17,30.33,30.26,30.22,10,10,10,13,4,16,0.00,0,,250
2012-10-6,63,45,26,25,20,17,63,40,17,30.38,30.28,30.21,10,10,10,9,3,16,0.00,0,,264
2012-10-7,66,46,26,24,20,17,69,42,15,30.31,30.20,30.09,10,10,10,7,1,8,0.00,0,,266
2012-10-8,68,47,26,26,20,17,69,42,15,30.13,30.04,29.94,10,10,9,9,1,10,0.00,0,,257
2012-10-9,78,54,29,30,24,19,63,39,14,30.10,30.02,29.96,10,10,8,8,2,13,0.00,0,,253
2012-10-10,74,54,33,34,31,28,76,49,22,30.07,29.97,29.88,10,10,10,7,1,9,0.00,0,,200
2012-10-11,75,55,34,35,31,27,76,48,20,30.01,29.93,29.84,10,10,7,6,1,12,0.00,0,,217
2012-10-12,77,56,34,40,31,27,75,46,17,29.94,29.87,29.79,10,10,10,23,3,28,0.00,1,,290
2012-10-13,73,60,47,50,45,40,83,58,33,30.26,30.15,29.96,10,10,10,22,6,28,0.01,5,Rain,285
2012-10-14,75,57,38,45,41,35,86,60,33,30.31,30.18,30.00,10,9,2,8,2,10,0.00,0,,282
2012-10-15,73,62,51,54,48,42,83,62,41,30.09,29.98,29.87,10,10,7,12,4,16,0.13,5,Rain,138
2012-10-16,69,55,41,56,41,26,93,59,24,30.20,29.92,29.71,10,10,5,32,13,43,0.33,3,Rain,307
2012-10-17,59,47,34,35,31,27,76,53,30,30.34,30.29,30.21,10,10,6,12,4,14,0.00,0,Snow,228
2012-10-18,63,47,30,36,32,27,89,61,32,30.40,30.29,30.12,10,10,8,7,2,8,0.00,0,,261
2012-10-19,59,48,36,40,36,32,89,65,40,30.11,30.00,29.81,10,10,9,7,2,14,T,4,Rain,308
2012-10-20,65,51,36,42,35,27,85,61,36,29.90,29.84,29.81,10,10,2,18,5,23,T,3,Rain,310
2012-10-21,57,43,28,29,26,24,85,58,30,29.97,29.90,29.84,10,10,9,12,3,13,0.00,0,,261
2012-10-22,48,40,31,41,34,25,92,81,70,29.82,29.69,29.60,10,9,2,25,4,43,0.16,5,Rain-Thunderstorm,231
2012-10-23,52,42,32,36,33,27,92,65,38,30.03,29.89,29.79,10,9,3,20,6,28,0.17,5,Rain,200
2012-10-24,42,35,27,36,31,24,92,83,73,30.21,30.10,30.01,10,10,6,10,2,15,T,5,Rain-Snow,47
2012-10-25,50,40,30,35,31,27,96,73,50,30.51,30.35,30.19,10,8,1,8,2,10,0.00,4,,269
2012-10-26,45,37,28,34,29,24,92,77,62,30.52,30.38,30.24,10,10,8,8,3,18,0.00,4,,307
2012-10-27,44,38,32,39,33,28,92,81,70,30.27,30.22,30.17,10,10,8,8,3,10,0.02,6,Rain,274
2012-10-28,50,44,37,46,41,35,93,88,82,30.17,30.12,30.07,10,9,6,8,3,20,0.04,6,Rain,254
2012-10-29,60,50,39,50,43,38,100,85,69,30.18,30.11,30.02,10,4,0,9,2,12,0.00,5,Fog,170
2012-10-30,68,56,43,47,44,41,100,71,42,30.16,30.08,29.99,10,6,2,12,2,24,0.00,2,,316
2012-10-31,57,48,39,45,41,37,92,74,55,30.01,29.93,29.84,10,8,4,12,3,20,0.00,0,,253